sensor_id;sensor_type;location;lat;lon;timestamp;temperature;humidity
79571;DHT22;69034;49.444;7.758;2023-09-12T00:03:56;23.20;59.20
79571;DHT22;69034;49.444;7.758;2023-09-12T00:07:57;23.00;59.80
79571;DHT22;69034;49.444;7.758;2023-09-12T00:11:57;22.90;60.10
79571;DHT22;69034;49.444;7.758;2023-09-12T00:15:58;22.70;60.40
79571;DHT22;69034;49.444;7.758;2023-09-12T00:19:59;22.60;60.60
79571;DHT22;69034;49.444;7.758;2023-09-12T00:24:00;22.50;60.80
79571;DHT22;69034;49.444;7.758;2023-09-12T00:28:00;22.50;60.80
79571;DHT22;69034;49.444;7.758;2023-09-12T00:32:01;22.40;61.10
79571;DHT22;69034;49.444;7.758;2023-09-12T00:36:02;22.30;61.00
79571;DHT22;69034;49.444;7.758;2023-09-12T00:40:03;22.30;61.20
79571;DHT22;69034;49.444;7.758;2023-09-12T00:44:07;22.20;61.30
79571;DHT22;69034;49.444;7.758;2023-09-12T00:48:09;22.20;61.40
79571;DHT22;69034;49.444;7.758;2023-09-12T00:52:10;22.10;61.60
79571;DHT22;69034;49.444;7.758;2023-09-12T00:56:11;22.10;61.80
79571;DHT22;69034;49.444;7.758;2023-09-12T01:00:13;22.00;61.80
79571;DHT22;69034;49.444;7.758;2023-09-12T01:04:14;22.00;61.90
79571;DHT22;69034;49.444;7.758;2023-09-12T01:08:15;22.00;62.10
79571;DHT22;69034;49.444;7.758;2023-09-12T01:12:16;21.90;62.30
79571;DHT22;69034;49.444;7.758;2023-09-12T01:16:18;21.90;62.60
79571;DHT22;69034;49.444;7.758;2023-09-12T01:20:28;21.80;62.70
79571;DHT22;69034;49.444;7.758;2023-09-12T01:29:06;21.70;62.90
79571;DHT22;69034;49.444;7.758;2023-09-12T01:33:08;21.70;62.80
79571;DHT22;69034;49.444;7.758;2023-09-12T01:37:09;21.60;63.10
79571;DHT22;69034;49.444;7.758;2023-09-12T01:41:10;21.70;63.10
79571;DHT22;69034;49.444;7.758;2023-09-12T01:45:14;21.80;63.10
79571;DHT22;69034;49.444;7.758;2023-09-12T01:49:31;21.90;63.10
79571;DHT22;69034;49.444;7.758;2023-09-12T01:53:33;22.00;63.10
79571;DHT22;69034;49.444;7.758;2023-09-12T01:57:37;22.10;62.90
79571;DHT22;69034;49.444;7.758;2023-09-12T02:01:38;22.10;62.90
79571;DHT22;69034;49.444;7.758;2023-09-12T02:05:39;22.20;62.80
79571;DHT22;69034;49.444;7.758;2023-09-12T02:09:39;22.20;62.80
79571;DHT22;69034;49.444;7.758;2023-09-12T02:13:40;22.30;62.80
79571;DHT22;69034;49.444;7.758;2023-09-12T02:17:41;22.30;62.80
79571;DHT22;69034;49.444;7.758;2023-09-12T02:21:41;22.40;62.80
79571;DHT22;69034;49.444;7.758;2023-09-12T02:25:42;22.40;62.70
79571;DHT22;69034;49.444;7.758;2023-09-12T02:29:43;22.40;62.70
79571;DHT22;69034;49.444;7.758;2023-09-12T02:33:44;22.40;62.50
79571;DHT22;69034;49.444;7.758;2023-09-12T02:37:45;22.40;62.50
79571;DHT22;69034;49.444;7.758;2023-09-12T02:41:46;22.40;62.70
79571;DHT22;69034;49.444;7.758;2023-09-12T02:45:47;22.40;62.80
79571;DHT22;69034;49.444;7.758;2023-09-12T02:49:49;22.40;62.80
79571;DHT22;69034;49.444;7.758;2023-09-12T02:53:49;22.40;62.80
79571;DHT22;69034;49.444;7.758;2023-09-12T02:57:50;22.40;62.70
79571;DHT22;69034;49.444;7.758;2023-09-12T03:01:50;22.40;62.70
79571;DHT22;69034;49.444;7.758;2023-09-12T03:06:01;22.40;62.80
79571;DHT22;69034;49.444;7.758;2023-09-12T03:10:05;22.40;62.80
79571;DHT22;69034;49.444;7.758;2023-09-12T03:14:06;22.40;62.80
79571;DHT22;69034;49.444;7.758;2023-09-12T03:18:09;22.30;62.90
79571;DHT22;69034;49.444;7.758;2023-09-12T03:22:10;22.30;62.90
79571;DHT22;69034;49.444;7.758;2023-09-12T03:26:10;22.30;62.80
79571;DHT22;69034;49.444;7.758;2023-09-12T03:30:11;22.30;62.80
79571;DHT22;69034;49.444;7.758;2023-09-12T03:34:12;22.30;62.70
79571;DHT22;69034;49.444;7.758;2023-09-12T03:38:12;22.30;62.70
79571;DHT22;69034;49.444;7.758;2023-09-12T03:42:15;22.30;62.80
79571;DHT22;69034;49.444;7.758;2023-09-12T03:46:15;22.30;62.80
79571;DHT22;69034;49.444;7.758;2023-09-12T03:50:16;22.30;62.80
79571;DHT22;69034;49.444;7.758;2023-09-12T03:54:16;22.30;62.80
79571;DHT22;69034;49.444;7.758;2023-09-12T03:58:17;22.30;63.00
79571;DHT22;69034;49.444;7.758;2023-09-12T04:02:18;22.20;63.00
79571;DHT22;69034;49.444;7.758;2023-09-12T04:06:19;22.20;62.90
79571;DHT22;69034;49.444;7.758;2023-09-12T04:10:20;22.10;63.10
79571;DHT22;69034;49.444;7.758;2023-09-12T04:14:21;22.00;63.20
79571;DHT22;69034;49.444;7.758;2023-09-12T04:18:22;21.90;63.40
79571;DHT22;69034;49.444;7.758;2023-09-12T04:22:23;21.80;63.60
79571;DHT22;69034;49.444;7.758;2023-09-12T04:26:23;21.70;63.80
79571;DHT22;69034;49.444;7.758;2023-09-12T04:30:24;21.50;63.90
79571;DHT22;69034;49.444;7.758;2023-09-12T04:34:25;21.40;64.10
79571;DHT22;69034;49.444;7.758;2023-09-12T04:38:27;21.30;64.50
79571;DHT22;69034;49.444;7.758;2023-09-12T04:42:28;21.80;64.00
79571;DHT22;69034;49.444;7.758;2023-09-12T04:46:28;22.20;63.20
79571;DHT22;69034;49.444;7.758;2023-09-12T04:50:29;22.50;63.00
79571;DHT22;69034;49.444;7.758;2023-09-12T04:54:29;22.70;62.70
79571;DHT22;69034;49.444;7.758;2023-09-12T04:58:30;22.80;62.70
79571;DHT22;69034;49.444;7.758;2023-09-12T05:02:31;22.90;62.40
79571;DHT22;69034;49.444;7.758;2023-09-12T05:06:31;23.00;62.70
79571;DHT22;69034;49.444;7.758;2023-09-12T05:10:32;23.20;62.70
79571;DHT22;69034;49.444;7.758;2023-09-12T05:14:32;23.30;62.50
79571;DHT22;69034;49.444;7.758;2023-09-12T05:18:33;23.30;62.40
79571;DHT22;69034;49.444;7.758;2023-09-12T05:22:34;23.40;62.20
79571;DHT22;69034;49.444;7.758;2023-09-12T05:26:34;23.50;62.00
79571;DHT22;69034;49.444;7.758;2023-09-12T05:30:35;23.40;61.80
79571;DHT22;69034;49.444;7.758;2023-09-12T05:34:37;23.50;61.60
79571;DHT22;69034;49.444;7.758;2023-09-12T05:38:37;23.40;61.50
79571;DHT22;69034;49.444;7.758;2023-09-12T05:42:38;23.30;61.40
79571;DHT22;69034;49.444;7.758;2023-09-12T05:46:41;23.40;61.50
79571;DHT22;69034;49.444;7.758;2023-09-12T05:50:42;23.70;61.00
79571;DHT22;69034;49.444;7.758;2023-09-12T05:54:44;23.90;60.70
79571;DHT22;69034;49.444;7.758;2023-09-12T05:58:46;24.00;60.30
79571;DHT22;69034;49.444;7.758;2023-09-12T06:02:49;24.10;60.00
79571;DHT22;69034;49.444;7.758;2023-09-12T06:06:50;24.20;59.80
79571;DHT22;69034;49.444;7.758;2023-09-12T06:10:50;24.20;59.60
79571;DHT22;69034;49.444;7.758;2023-09-12T06:14:54;24.20;59.50
79571;DHT22;69034;49.444;7.758;2023-09-12T06:18:56;24.30;59.40
79571;DHT22;69034;49.444;7.758;2023-09-12T06:22:56;24.30;59.30
79571;DHT22;69034;49.444;7.758;2023-09-12T06:26:57;24.20;59.20
79571;DHT22;69034;49.444;7.758;2023-09-12T06:30:58;24.20;59.20
79571;DHT22;69034;49.444;7.758;2023-09-12T06:34:59;24.20;59.10
79571;DHT22;69034;49.444;7.758;2023-09-12T06:39:00;24.30;59.10
79571;DHT22;69034;49.444;7.758;2023-09-12T06:43:01;24.40;58.90
79571;DHT22;69034;49.444;7.758;2023-09-12T06:47:04;24.50;58.70
79571;DHT22;69034;49.444;7.758;2023-09-12T06:51:06;24.60;58.50
79571;DHT22;69034;49.444;7.758;2023-09-12T06:55:07;24.60;58.30
79571;DHT22;69034;49.444;7.758;2023-09-12T06:59:08;24.70;58.00
79571;DHT22;69034;49.444;7.758;2023-09-12T07:03:08;24.90;57.80
79571;DHT22;69034;49.444;7.758;2023-09-12T07:07:10;25.10;57.40
79571;DHT22;69034;49.444;7.758;2023-09-12T07:11:11;25.20;57.20
79571;DHT22;69034;49.444;7.758;2023-09-12T07:15:12;25.40;56.90
79571;DHT22;69034;49.444;7.758;2023-09-12T07:19:13;25.50;56.60
79571;DHT22;69034;49.444;7.758;2023-09-12T07:23:13;25.70;56.20
79571;DHT22;69034;49.444;7.758;2023-09-12T07:27:14;25.90;55.80
79571;DHT22;69034;49.444;7.758;2023-09-12T07:31:15;26.10;55.60
79571;DHT22;69034;49.444;7.758;2023-09-12T07:35:15;26.30;55.20
79571;DHT22;69034;49.444;7.758;2023-09-12T07:39:17;26.40;55.00
79571;DHT22;69034;49.444;7.758;2023-09-12T07:43:18;26.60;54.60
79571;DHT22;69034;49.444;7.758;2023-09-12T07:47:19;26.80;54.30
79571;DHT22;69034;49.444;7.758;2023-09-12T07:51:19;27.10;53.90
79571;DHT22;69034;49.444;7.758;2023-09-12T07:55:20;27.30;53.60
79571;DHT22;69034;49.444;7.758;2023-09-12T07:59:21;27.60;53.20
79571;DHT22;69034;49.444;7.758;2023-09-12T08:03:22;27.80;52.90
79571;DHT22;69034;49.444;7.758;2023-09-12T08:07:23;28.10;52.50
79571;DHT22;69034;49.444;7.758;2023-09-12T08:11:24;28.40;52.10
79571;DHT22;69034;49.444;7.758;2023-09-12T08:15:24;28.70;51.60
79571;DHT22;69034;49.444;7.758;2023-09-12T08:19:25;28.90;51.20
79571;DHT22;69034;49.444;7.758;2023-09-12T08:23:26;29.20;50.70
79571;DHT22;69034;49.444;7.758;2023-09-12T08:27:27;29.30;50.40
79571;DHT22;69034;49.444;7.758;2023-09-12T08:31:27;29.60;49.90
79571;DHT22;69034;49.444;7.758;2023-09-12T08:35:28;29.90;49.50
79571;DHT22;69034;49.444;7.758;2023-09-12T08:39:43;30.30;49.00
79571;DHT22;69034;49.444;7.758;2023-09-12T08:43:44;30.80;48.30
79571;DHT22;69034;49.444;7.758;2023-09-12T08:47:52;31.20;47.80
79571;DHT22;69034;49.444;7.758;2023-09-12T08:51:53;31.40;47.20
79571;DHT22;69034;49.444;7.758;2023-09-12T08:55:55;31.50;47.10
79571;DHT22;69034;49.444;7.758;2023-09-12T08:59:56;31.50;47.00
79571;DHT22;69034;49.444;7.758;2023-09-12T09:03:57;31.50;46.80
79571;DHT22;69034;49.444;7.758;2023-09-12T09:07:59;31.50;46.40
79571;DHT22;69034;49.444;7.758;2023-09-12T09:12:00;31.50;46.40
79571;DHT22;69034;49.444;7.758;2023-09-12T09:16:14;31.60;46.10
79571;DHT22;69034;49.444;7.758;2023-09-12T09:20:26;31.70;45.70
79571;DHT22;69034;49.444;7.758;2023-09-12T09:24:28;32.00;45.30
79571;DHT22;69034;49.444;7.758;2023-09-12T09:28:29;32.50;44.80
79571;DHT22;69034;49.444;7.758;2023-09-12T09:32:29;33.00;44.00
79571;DHT22;69034;49.444;7.758;2023-09-12T09:36:31;33.40;43.50
79571;DHT22;69034;49.444;7.758;2023-09-12T09:40:34;33.70;43.30
79571;DHT22;69034;49.444;7.758;2023-09-12T09:44:34;34.30;42.30
79571;DHT22;69034;49.444;7.758;2023-09-12T09:48:36;34.60;41.90
79571;DHT22;69034;49.444;7.758;2023-09-12T09:52:37;34.70;41.40
79571;DHT22;69034;49.444;7.758;2023-09-12T09:56:48;34.70;41.30
79571;DHT22;69034;49.444;7.758;2023-09-12T10:00:51;34.80;41.20
79571;DHT22;69034;49.444;7.758;2023-09-12T10:04:54;35.10;40.90
79571;DHT22;69034;49.444;7.758;2023-09-12T10:08:58;35.80;40.20
79571;DHT22;69034;49.444;7.758;2023-09-12T10:12:59;36.30;39.90
79571;DHT22;69034;49.444;7.758;2023-09-12T10:17:03;36.80;39.10
79571;DHT22;69034;49.444;7.758;2023-09-12T10:21:10;37.00;38.90
79571;DHT22;69034;49.444;7.758;2023-09-12T10:25:11;37.30;38.40
79571;DHT22;69034;49.444;7.758;2023-09-12T10:29:14;37.60;38.00
79571;DHT22;69034;49.444;7.758;2023-09-12T10:33:15;37.80;37.90
79571;DHT22;69034;49.444;7.758;2023-09-12T10:37:19;38.10;37.50
79571;DHT22;69034;49.444;7.758;2023-09-12T10:41:24;38.10;37.20
79571;DHT22;69034;49.444;7.758;2023-09-12T10:45:26;38.60;37.10
79571;DHT22;69034;49.444;7.758;2023-09-12T10:49:26;39.10;36.40
79571;DHT22;69034;49.444;7.758;2023-09-12T10:53:28;39.90;35.80
79571;DHT22;69034;49.444;7.758;2023-09-12T10:57:29;40.60;34.90
79571;DHT22;69034;49.444;7.758;2023-09-12T11:01:31;41.50;33.60
79571;DHT22;69034;49.444;7.758;2023-09-12T11:09:33;42.80;31.70
79571;DHT22;69034;49.444;7.758;2023-09-12T11:13:40;43.30;31.00
79571;DHT22;69034;49.444;7.758;2023-09-12T11:17:42;43.80;30.50
79571;DHT22;69034;49.444;7.758;2023-09-12T11:21:49;44.60;29.50
79571;DHT22;69034;49.444;7.758;2023-09-12T11:26:02;45.10;29.60
79571;DHT22;69034;49.444;7.758;2023-09-12T11:30:07;45.50;29.10
79571;DHT22;69034;49.444;7.758;2023-09-12T11:34:09;45.20;29.60
79571;DHT22;69034;49.444;7.758;2023-09-12T11:38:11;45.30;29.40
79571;DHT22;69034;49.444;7.758;2023-09-12T11:42:12;44.80;29.80
79571;DHT22;69034;49.444;7.758;2023-09-12T11:46:14;44.70;29.10
79571;DHT22;69034;49.444;7.758;2023-09-12T11:54:29;43.80;30.10
79571;DHT22;69034;49.444;7.758;2023-09-12T11:58:32;44.80;28.60
79571;DHT22;69034;49.444;7.758;2023-09-12T12:02:34;45.00;28.90
79571;DHT22;69034;49.444;7.758;2023-09-12T12:06:34;45.70;28.40
79571;DHT22;69034;49.444;7.758;2023-09-12T12:10:36;46.30;28.00
79571;DHT22;69034;49.444;7.758;2023-09-12T12:14:39;47.30;27.30
79571;DHT22;69034;49.444;7.758;2023-09-12T12:18:40;48.00;26.50
79571;DHT22;69034;49.444;7.758;2023-09-12T12:22:41;48.70;26.00
79571;DHT22;69034;49.444;7.758;2023-09-12T12:26:43;49.10;25.70
79571;DHT22;69034;49.444;7.758;2023-09-12T12:30:43;49.40;25.80
79571;DHT22;69034;49.444;7.758;2023-09-12T12:34:48;49.60;25.90
79571;DHT22;69034;49.444;7.758;2023-09-12T12:38:50;49.90;25.70
79571;DHT22;69034;49.444;7.758;2023-09-12T12:42:50;50.20;25.40
79571;DHT22;69034;49.444;7.758;2023-09-12T12:46:52;50.40;25.00
79571;DHT22;69034;49.444;7.758;2023-09-12T12:50:53;50.40;24.70
79571;DHT22;69034;49.444;7.758;2023-09-12T12:55:03;50.60;24.30
79571;DHT22;69034;49.444;7.758;2023-09-12T12:59:06;50.50;24.00
79571;DHT22;69034;49.444;7.758;2023-09-12T13:03:08;50.70;19.80
79571;DHT22;69034;49.444;7.758;2023-09-12T13:07:08;51.00;19.30
79571;DHT22;69034;49.444;7.758;2023-09-12T13:11:13;50.90;19.30
79571;DHT22;69034;49.444;7.758;2023-09-12T13:15:20;51.30;19.00
79571;DHT22;69034;49.444;7.758;2023-09-12T13:19:20;52.00;18.60
79571;DHT22;69034;49.444;7.758;2023-09-12T13:23:21;52.60;18.30
79571;DHT22;69034;49.444;7.758;2023-09-12T13:27:22;53.00;18.10
79571;DHT22;69034;49.444;7.758;2023-09-12T13:31:23;53.30;17.60
79571;DHT22;69034;49.444;7.758;2023-09-12T13:35:23;53.60;17.50
79571;DHT22;69034;49.444;7.758;2023-09-12T13:39:24;53.50;17.20
79571;DHT22;69034;49.444;7.758;2023-09-12T13:43:25;53.80;17.10
79571;DHT22;69034;49.444;7.758;2023-09-12T13:47:26;54.00;17.00
79571;DHT22;69034;49.444;7.758;2023-09-12T13:51:27;54.00;16.70
79571;DHT22;69034;49.444;7.758;2023-09-12T13:55:27;53.90;16.70
79571;DHT22;69034;49.444;7.758;2023-09-12T13:59:28;54.10;16.60
79571;DHT22;69034;49.444;7.758;2023-09-12T14:03:29;54.20;16.60
79571;DHT22;69034;49.444;7.758;2023-09-12T14:07:30;54.30;16.50
79571;DHT22;69034;49.444;7.758;2023-09-12T14:11:30;54.50;16.20
79571;DHT22;69034;49.444;7.758;2023-09-12T14:15:31;54.60;16.10
79571;DHT22;69034;49.444;7.758;2023-09-12T14:19:32;54.40;15.90
79571;DHT22;69034;49.444;7.758;2023-09-12T14:23:34;54.40;16.10
79571;DHT22;69034;49.444;7.758;2023-09-12T14:27:35;54.70;16.00
79571;DHT22;69034;49.444;7.758;2023-09-12T14:31:35;54.80;15.80
79571;DHT22;69034;49.444;7.758;2023-09-12T14:35:37;54.60;15.60
79571;DHT22;69034;49.444;7.758;2023-09-12T14:39:38;54.50;15.60
79571;DHT22;69034;49.444;7.758;2023-09-12T14:43:39;54.30;15.60
79571;DHT22;69034;49.444;7.758;2023-09-12T14:47:40;53.60;15.80
79571;DHT22;69034;49.444;7.758;2023-09-12T14:51:41;52.70;16.10
79571;DHT22;69034;49.444;7.758;2023-09-12T14:55:42;51.50;16.50
79571;DHT22;69034;49.444;7.758;2023-09-12T14:59:44;50.60;16.80
79571;DHT22;69034;49.444;7.758;2023-09-12T15:03:45;49.80;17.20
79571;DHT22;69034;49.444;7.758;2023-09-12T15:07:46;48.30;17.60
79571;DHT22;69034;49.444;7.758;2023-09-12T15:11:48;46.60;18.40
79571;DHT22;69034;49.444;7.758;2023-09-12T15:15:48;45.70;18.80
79571;DHT22;69034;49.444;7.758;2023-09-12T15:19:50;44.60;19.40
79571;DHT22;69034;49.444;7.758;2023-09-12T15:23:51;44.30;19.60
79571;DHT22;69034;49.444;7.758;2023-09-12T15:27:51;44.90;19.40
79571;DHT22;69034;49.444;7.758;2023-09-12T15:31:53;46.00;19.00
79571;DHT22;69034;49.444;7.758;2023-09-12T15:35:54;46.90;18.70
79571;DHT22;69034;49.444;7.758;2023-09-12T15:39:54;47.20;18.80
79571;DHT22;69034;49.444;7.758;2023-09-12T15:43:55;46.90;18.90
79571;DHT22;69034;49.444;7.758;2023-09-12T15:47:56;46.20;19.40
79571;DHT22;69034;49.444;7.758;2023-09-12T15:51:57;45.20;19.80
79571;DHT22;69034;49.444;7.758;2023-09-12T15:55:57;44.30;24.40
79571;DHT22;69034;49.444;7.758;2023-09-12T15:59:58;43.50;24.90
79571;DHT22;69034;49.444;7.758;2023-09-12T16:04:00;42.80;25.40
79571;DHT22;69034;49.444;7.758;2023-09-12T16:08:02;42.20;25.90
79571;DHT22;69034;49.444;7.758;2023-09-12T16:12:03;41.70;26.40
79571;DHT22;69034;49.444;7.758;2023-09-12T16:16:05;40.90;27.20
79571;DHT22;69034;49.444;7.758;2023-09-12T16:20:06;39.80;28.00
79571;DHT22;69034;49.444;7.758;2023-09-12T16:24:11;39.00;28.70
79571;DHT22;69034;49.444;7.758;2023-09-12T16:28:11;38.30;29.40
79571;DHT22;69034;49.444;7.758;2023-09-12T16:32:12;37.60;30.00
79571;DHT22;69034;49.444;7.758;2023-09-12T16:36:15;36.90;30.80
79571;DHT22;69034;49.444;7.758;2023-09-12T16:40:16;36.30;31.40
79571;DHT22;69034;49.444;7.758;2023-09-12T16:44:17;35.80;32.00
79571;DHT22;69034;49.444;7.758;2023-09-12T16:48:18;35.40;32.60
79571;DHT22;69034;49.444;7.758;2023-09-12T16:52:21;35.00;33.10
79571;DHT22;69034;49.444;7.758;2023-09-12T16:56:22;34.70;33.70
79571;DHT22;69034;49.444;7.758;2023-09-12T17:00:22;34.40;34.30
79571;DHT22;69034;49.444;7.758;2023-09-12T17:04:23;34.10;34.80
79571;DHT22;69034;49.444;7.758;2023-09-12T17:08:24;33.80;35.40
79571;DHT22;69034;49.444;7.758;2023-09-12T17:12:31;33.50;36.10
79571;DHT22;69034;49.444;7.758;2023-09-12T17:16:31;33.20;36.80
79571;DHT22;69034;49.444;7.758;2023-09-12T17:20:32;32.90;37.30
79571;DHT22;69034;49.444;7.758;2023-09-12T17:24:33;32.60;37.90
79571;DHT22;69034;49.444;7.758;2023-09-12T17:28:34;32.40;38.40
79571;DHT22;69034;49.444;7.758;2023-09-12T17:32:34;32.20;39.00
79571;DHT22;69034;49.444;7.758;2023-09-12T17:36:38;32.10;39.40
79571;DHT22;69034;49.444;7.758;2023-09-12T17:40:39;31.90;39.90
79571;DHT22;69034;49.444;7.758;2023-09-12T17:44:40;31.80;40.40
79571;DHT22;69034;49.444;7.758;2023-09-12T17:48:40;31.70;40.90
79571;DHT22;69034;49.444;7.758;2023-09-12T17:52:42;31.50;41.20
79571;DHT22;69034;49.444;7.758;2023-09-12T17:56:43;31.40;41.80
79571;DHT22;69034;49.444;7.758;2023-09-12T18:00:55;31.30;42.20
79571;DHT22;69034;49.444;7.758;2023-09-12T18:04:56;31.10;42.50
79571;DHT22;69034;49.444;7.758;2023-09-12T18:08:56;31.00;42.80
79571;DHT22;69034;49.444;7.758;2023-09-12T18:12:57;30.90;44.20
79571;DHT22;69034;49.444;7.758;2023-09-12T18:16:58;30.50;44.60
79571;DHT22;69034;49.444;7.758;2023-09-12T18:21:01;30.20;45.00
79571;DHT22;69034;49.444;7.758;2023-09-12T18:25:03;30.00;45.50
79571;DHT22;69034;49.444;7.758;2023-09-12T18:29:04;29.70;45.60
79571;DHT22;69034;49.444;7.758;2023-09-12T18:33:05;29.50;45.70
79571;DHT22;69034;49.444;7.758;2023-09-12T18:37:06;29.40;45.70
79571;DHT22;69034;49.444;7.758;2023-09-12T18:41:07;29.10;46.20
79571;DHT22;69034;49.444;7.758;2023-09-12T18:45:08;28.90;46.70
79571;DHT22;69034;49.444;7.758;2023-09-12T18:49:10;28.70;46.70
79571;DHT22;69034;49.444;7.758;2023-09-12T18:53:15;28.70;46.40
79571;DHT22;69034;49.444;7.758;2023-09-12T18:57:16;28.70;46.40
79571;DHT22;69034;49.444;7.758;2023-09-12T19:01:16;28.70;46.30
79571;DHT22;69034;49.444;7.758;2023-09-12T19:05:17;28.50;46.30
79571;DHT22;69034;49.444;7.758;2023-09-12T19:09:19;28.40;46.20
79571;DHT22;69034;49.444;7.758;2023-09-12T19:13:21;28.40;46.30
79571;DHT22;69034;49.444;7.758;2023-09-12T19:17:22;28.30;46.20
79571;DHT22;69034;49.444;7.758;2023-09-12T19:21:23;28.30;46.10
79571;DHT22;69034;49.444;7.758;2023-09-12T19:25:24;28.20;46.40
79571;DHT22;69034;49.444;7.758;2023-09-12T19:29:49;28.10;46.50
79571;DHT22;69034;49.444;7.758;2023-09-12T19:33:53;27.90;46.90
79571;DHT22;69034;49.444;7.758;2023-09-12T19:37:53;27.90;46.80
79571;DHT22;69034;49.444;7.758;2023-09-12T19:41:56;27.80;47.00
79571;DHT22;69034;49.444;7.758;2023-09-12T19:46:02;27.80;47.10
79571;DHT22;69034;49.444;7.758;2023-09-12T19:50:05;27.80;47.00
79571;DHT22;69034;49.444;7.758;2023-09-12T19:54:07;27.80;47.10
79571;DHT22;69034;49.444;7.758;2023-09-12T19:58:08;27.80;47.10
79571;DHT22;69034;49.444;7.758;2023-09-12T20:02:10;27.80;47.20
79571;DHT22;69034;49.444;7.758;2023-09-12T20:06:11;27.70;47.40
79571;DHT22;69034;49.444;7.758;2023-09-12T20:10:11;27.60;47.50
79571;DHT22;69034;49.444;7.758;2023-09-12T20:14:12;27.40;47.90
79571;DHT22;69034;49.444;7.758;2023-09-12T20:18:14;27.40;48.00
79571;DHT22;69034;49.444;7.758;2023-09-12T20:22:15;27.30;48.30
79571;DHT22;69034;49.444;7.758;2023-09-12T20:26:15;27.20;48.30
79571;DHT22;69034;49.444;7.758;2023-09-12T20:30:16;27.20;48.30
79571;DHT22;69034;49.444;7.758;2023-09-12T20:34:17;27.10;48.40
79571;DHT22;69034;49.444;7.758;2023-09-12T20:38:22;27.10;48.50
79571;DHT22;69034;49.444;7.758;2023-09-12T20:42:23;27.00;48.70
79571;DHT22;69034;49.444;7.758;2023-09-12T20:46:23;26.90;49.00
79571;DHT22;69034;49.444;7.758;2023-09-12T20:50:29;26.90;49.20
79571;DHT22;69034;49.444;7.758;2023-09-12T20:54:30;26.80;49.40
79571;DHT22;69034;49.444;7.758;2023-09-12T20:58:32;26.80;49.60
79571;DHT22;69034;49.444;7.758;2023-09-12T21:02:34;26.80;49.60
79571;DHT22;69034;49.444;7.758;2023-09-12T21:06:35;26.70;49.90
79571;DHT22;69034;49.444;7.758;2023-09-12T21:10:36;26.60;50.30
79571;DHT22;69034;49.444;7.758;2023-09-12T21:14:36;26.50;50.60
79571;DHT22;69034;49.444;7.758;2023-09-12T21:18:41;26.40;50.90
79571;DHT22;69034;49.444;7.758;2023-09-12T21:22:44;26.40;51.00
79571;DHT22;69034;49.444;7.758;2023-09-12T21:26:45;26.30;51.10
79571;DHT22;69034;49.444;7.758;2023-09-12T21:30:52;26.20;51.30
79571;DHT22;69034;49.444;7.758;2023-09-12T21:39:10;26.20;51.60
79571;DHT22;69034;49.444;7.758;2023-09-12T21:43:11;26.20;51.60
79571;DHT22;69034;49.444;7.758;2023-09-12T21:47:12;26.20;51.70
79571;DHT22;69034;49.444;7.758;2023-09-12T21:51:14;26.10;51.80
79571;DHT22;69034;49.444;7.758;2023-09-12T21:55:14;26.10;52.00
79571;DHT22;69034;49.444;7.758;2023-09-12T21:59:15;26.10;52.10
79571;DHT22;69034;49.444;7.758;2023-09-12T22:03:17;26.00;51.80
79571;DHT22;69034;49.444;7.758;2023-09-12T22:07:21;25.90;51.80
79571;DHT22;69034;49.444;7.758;2023-09-12T22:11:23;25.80;51.70
79571;DHT22;69034;49.444;7.758;2023-09-12T22:15:25;25.70;51.80
79571;DHT22;69034;49.444;7.758;2023-09-12T22:19:27;25.60;51.80
79571;DHT22;69034;49.444;7.758;2023-09-12T22:23:28;25.50;52.00
79571;DHT22;69034;49.444;7.758;2023-09-12T22:27:28;25.40;52.00
79571;DHT22;69034;49.444;7.758;2023-09-12T22:31:31;25.30;52.10
79571;DHT22;69034;49.444;7.758;2023-09-12T22:35:32;25.30;52.00
79571;DHT22;69034;49.444;7.758;2023-09-12T22:39:33;25.20;52.10
79571;DHT22;69034;49.444;7.758;2023-09-12T22:43:34;25.20;52.10
79571;DHT22;69034;49.444;7.758;2023-09-12T22:47:38;25.10;52.10
79571;DHT22;69034;49.444;7.758;2023-09-12T22:51:41;25.10;52.20
79571;DHT22;69034;49.444;7.758;2023-09-12T22:55:42;25.00;52.20
79571;DHT22;69034;49.444;7.758;2023-09-12T22:59:44;25.00;52.40
79571;DHT22;69034;49.444;7.758;2023-09-12T23:03:44;24.90;52.50
79571;DHT22;69034;49.444;7.758;2023-09-12T23:07:45;24.80;52.70
79571;DHT22;69034;49.444;7.758;2023-09-12T23:11:46;24.80;52.60
79571;DHT22;69034;49.444;7.758;2023-09-12T23:15:47;24.80;52.70
79571;DHT22;69034;49.444;7.758;2023-09-12T23:19:48;24.70;52.70
79571;DHT22;69034;49.444;7.758;2023-09-12T23:23:48;24.70;52.80
79571;DHT22;69034;49.444;7.758;2023-09-12T23:27:49;24.60;52.80
79571;DHT22;69034;49.444;7.758;2023-09-12T23:31:51;24.60;52.80
79571;DHT22;69034;49.444;7.758;2023-09-12T23:35:55;24.60;52.80
79571;DHT22;69034;49.444;7.758;2023-09-12T23:39:56;24.50;52.80
79571;DHT22;69034;49.444;7.758;2023-09-12T23:43:57;24.50;52.90
79571;DHT22;69034;49.444;7.758;2023-09-12T23:47:58;24.50;52.90
79571;DHT22;69034;49.444;7.758;2023-09-12T23:51:59;24.50;53.00
79571;DHT22;69034;49.444;7.758;2023-09-12T23:56:00;24.50;53.00
